Archival Weather

Heathrow

London, United Kingdom (EGLL)

Report from: Thursday, September 21, 2023 12:20 PM BST
Current time: Sunday, July 14, 2024 11:32 AM BST

Current weather – Weather history – Daily summaries
Weather forecast

Temperature18.0°C (64.4°F)
Dew point10.0°C (50.0°F)
Winds 8 kts (4.1 m/s, 9.2 mph) Vrb
Winds variableWinds variable from South-Southeast (150°) to West-Southwest (240°)
Visibility6.2 mi. (10 km)
Clouds Few clouds 3,100 ft. (945 m)
Altimeter29.38 in.Hg (995 mB)
Relative humidity60 %
Density altitude1,147 ft. (350 m)
Remarks Fully automated report
Corrected report
No significant changes expected in the next two hours
Flight conditions Visual Meteorological Conditions
Raw dataCOR EGLL 211120Z AUTO 19008KT 150V240 9999 FEW031 18/10 Q0995 NOSIG
An error has occurred. This application may no longer respond until reloaded. Reload 🗙